Aérodrome :
LOGIN :

S'inscrire | Disclaimer

   EN    FR    IT 

 










Légende :    VFR   VFR Marginal   IFR   IFR Intensif   IFR Très Intensif
Visi : 
Plafond : 
>= 8 km
>= 3000ft
5 à 8 km
1000 à 3000 ft
1500m à 5 km
500 à 1000 ft
800 à 1500m
200 à 500 ft
< 800m
< 200 ft
Symboles :   Orages  Brouillard  Fortes neiges  Fortes précipitations  Vent > 20 kt
SIGMETs :   Divers  Orages  Givrage  Turbulence  Onde Orograph.  Cendres Volcan.







- Altitude de l'aérodrome : 45 ft
- Code IATA : CEG
- Voir les cartes d'approche


EGNR - Hawarden Chester

DERNIER METAR :
  • 250850Z 33011KT 9999 SCT028 09/04 Q1035

METARs EXPIRÉS :
  • 250820Z 32014KT 9999 FEW028 08/03 Q1034
  • 250750Z 32012KT 9999 FEW023 08/03 Q1034
  • 250720Z 33014KT 9999 FEW023 07/03 Q1033
  • 250650Z 32013KT 9999 FEW023 07/02 Q1033

TAF TAF EGNR
Valide du 25 à 09h jusqu'au 25 à 18h UTC


250809Z 2509/2518 32008KT 9999 SCT040
Pas de NOTAMs connus pour ce terrain.
1 SIGMET publié pour la FIR London (EGTT) :
 
Turbulence forte
EGTT SIGMET 02 VALID 250600/251000 EGRR
EGTT LONDON FIR SEV TURB FCST NE OF LINE N5500 E00153 - N5309 E00324 SFC/FL060 STNR WKN=



MET'MAP, la Météo Aéronautique d'un coup d'oeil ! - Copyright ORBIFLY Décembre 2007 - Disclaimer

ORBIFLY MET'MAP TEAM :

Programmation & Développement : Alexandra Zaïnal
Conception & Développement : Baudouin d'Aumeries
Co-Programmation & Développement : Marc-Olivier Méhu
Soutien technique & logistique : Manuel Goepfert

Contact : metmap@orbifly.com




SOURCES & CREDITS :

   NOAA